This is the latest recevied weather packets stored in our database for station/object N2KI-13. If no packets are shown the sender has not sent any weather packets the latest 10 day(s).
| Time | Temp. | Humidity | Pressure | Rain* | Wind** | Luminosity | Snow |
|---|---|---|---|---|---|---|---|
| 1777150504 | 5° C | 87% | 1016 hPa | 2.29 mm | - | - | - |
| 1777150204 | 5° C | 87% | 1016 hPa | 2.29 mm | - | - | - |
| 1777149604 | 5° C | 87% | 1016.1 hPa | 2.03 mm | - | - | - |
| 1777145703 | 5.56° C | 86% | 1016.7 hPa | 1.52 mm | - | - | - |
| 1777143604 | 6.11° C | 86% | 1017 hPa | 1.27 mm | - | - | - |
| 1777141203 | 6.67° C | 87% | 1017.3 hPa | 1.52 mm | - | - | - |
| 1777133404 | 6.67° C | 81% | 1017.9 hPa | 0.51 mm | - | - | - |
| 1777128004 | 8.33° C | 65% | 1017.4 hPa | 0 mm | - | - | - |
| 1777126805 | 8.33° C | 64% | 1017.3 hPa | 0 mm | - | - | - |
| 1777123804 | 8.33° C | 63% | 1016.4 hPa | 0 mm | - | - | - |
| 1777122604 | 8.33° C | 62% | 1016.5 hPa | 0 mm | - | - | - |
| 1777120504 | 8.33° C | 65% | 1016.4 hPa | 0 mm | - | - | - |
| 1777118705 | 8.33° C | 65% | 1016.7 hPa | 0 mm | - | - | - |
| 1777114804 | 7.78° C | 74% | 1015.8 hPa | 0 mm | - | - | - |
| 1777114204 | 7.78° C | 74% | 1015.5 hPa | 0 mm | - | - | - |
| 1777113904 | 7.78° C | 75% | 1015.5 hPa | 0 mm | - | - | - |
| 1777113004 | 7.78° C | 77% | 1015.5 hPa | 0 mm | - | - | - |
| 1777110304 | 7.78° C | 79% | 1014.9 hPa | 0 mm | - | - | - |
| 1777107604 | 8.33° C | 80% | 1015 hPa | 0 mm | - | - | - |
| 1777107304 | 8.33° C | 80% | 1015 hPa | 0 mm | - | - | - |
| 1777105804 | 8.33° C | 79% | 1014.7 hPa | 0 mm | - | - | - |
| 1777105204 | 8.89° C | 79% | 1014.3 hPa | 0 mm | - | - | - |
| 1777103704 | 8.89° C | 79% | 1014.3 hPa | 0 mm | - | - | - |
* Rain latest hour (hover to see other rain measurements)
** Current wind speed in m/s (hover to see current wind gust speed)